sensor_id;sensor_type;location;lat;lon;timestamp;pressure;altitude;pressure_sealevel;temperature;humidity
10466;BME280;5280;42.600;23.556;2022-12-29T00:00:06;94301.31;;;4.69;100.00
10466;BME280;5280;42.600;23.556;2022-12-29T00:02:33;94301.19;;;4.72;100.00
10466;BME280;5280;42.600;23.556;2022-12-29T00:05:00;94315.59;;;4.82;100.00
10466;BME280;5280;42.600;23.556;2022-12-29T00:07:27;94309.25;;;4.88;100.00
10466;BME280;5280;42.600;23.556;2022-12-29T00:09:55;94279.25;;;4.74;100.00
10466;BME280;5280;42.600;23.556;2022-12-29T00:12:22;94309.06;;;4.92;100.00
10466;BME280;5280;42.600;23.556;2022-12-29T00:14:48;94312.59;;;4.91;100.00
10466;BME280;5280;42.600;23.556;2022-12-29T00:17:32;94286.84;;;4.81;100.00
10466;BME280;5280;42.600;23.556;2022-12-29T00:19:59;94311.28;;;4.81;100.00
10466;BME280;5280;42.600;23.556;2022-12-29T00:22:43;94306.28;;;4.75;100.00
10466;BME280;5280;42.600;23.556;2022-12-29T00:25:29;94315.81;;;4.78;100.00
10466;BME280;5280;42.600;23.556;2022-12-29T00:28:13;94316.91;;;4.72;100.00
10466;BME280;5280;42.600;23.556;2022-12-29T00:30:59;94314.41;;;4.69;100.00
10466;BME280;5280;42.600;23.556;2022-12-29T00:33:43;94318.97;;;4.64;100.00
10466;BME280;5280;42.600;23.556;2022-12-29T00:36:29;94315.03;;;4.54;100.00
10466;BME280;5280;42.600;23.556;2022-12-29T00:38:59;94319.56;;;4.50;100.00
10466;BME280;5280;42.600;23.556;2022-12-29T00:41:47;94288.97;;;4.30;100.00
10466;BME280;5280;42.600;23.556;2022-12-29T00:44:31;94317.06;;;4.47;100.00
10466;BME280;5280;42.600;23.556;2022-12-29T00:46:58;94297.63;;;4.32;100.00
10466;BME280;5280;42.600;23.556;2022-12-29T00:49:27;94312.13;;;4.40;100.00
10466;BME280;5280;42.600;23.556;2022-12-29T00:51:56;94310.56;;;4.36;100.00
10466;BME280;5280;42.600;23.556;2022-12-29T00:54:24;94240.88;;;3.91;100.00
10466;BME280;5280;42.600;23.556;2022-12-29T00:56:52;94272.59;;;4.04;100.00
10466;BME280;5280;42.600;23.556;2022-12-29T00:59:19;94308.94;;;4.11;100.00
10466;BME280;5280;42.600;23.556;2022-12-29T01:01:46;94321.81;;;4.16;100.00
10466;BME280;5280;42.600;23.556;2022-12-29T01:04:13;94291.00;;;4.02;100.00
10466;BME280;5280;42.600;23.556;2022-12-29T01:06:41;94263.59;;;3.89;100.00
10466;BME280;5280;42.600;23.556;2022-12-29T01:09:08;94313.03;;;4.18;100.00
10466;BME280;5280;42.600;23.556;2022-12-29T01:11:54;94314.03;;;4.14;100.00
10466;BME280;5280;42.600;23.556;2022-12-29T01:14:22;94309.66;;;4.15;100.00
10466;BME280;5280;42.600;23.556;2022-12-29T01:16:50;94302.91;;;4.09;100.00
10466;BME280;5280;42.600;23.556;2022-12-29T01:19:18;94278.09;;;3.98;100.00
10466;BME280;5280;42.600;23.556;2022-12-29T01:21:45;94280.06;;;3.93;100.00
10466;BME280;5280;42.600;23.556;2022-12-29T01:24:13;94286.53;;;4.04;100.00
10466;BME280;5280;42.600;23.556;2022-12-29T01:26:40;94288.16;;;4.08;100.00
10466;BME280;5280;42.600;23.556;2022-12-29T01:29:09;94292.81;;;4.00;100.00
10466;BME280;5280;42.600;23.556;2022-12-29T01:31:38;94287.91;;;3.93;100.00
10466;BME280;5280;42.600;23.556;2022-12-29T01:34:05;94286.38;;;3.87;100.00
10466;BME280;5280;42.600;23.556;2022-12-29T01:36:32;94293.84;;;3.96;100.00
10466;BME280;5280;42.600;23.556;2022-12-29T01:38:59;94294.69;;;3.97;100.00
10466;BME280;5280;42.600;23.556;2022-12-29T01:41:27;94218.22;;;3.48;100.00
10466;BME280;5280;42.600;23.556;2022-12-29T01:43:55;94289.66;;;3.92;100.00
10466;BME280;5280;42.600;23.556;2022-12-29T01:46:26;94291.41;;;3.92;100.00
10466;BME280;5280;42.600;23.556;2022-12-29T01:48:58;94290.06;;;3.81;100.00
10466;BME280;5280;42.600;23.556;2022-12-29T01:51:29;94289.09;;;3.84;100.00
10466;BME280;5280;42.600;23.556;2022-12-29T01:54:02;94282.91;;;3.86;100.00
10466;BME280;5280;42.600;23.556;2022-12-29T01:56:31;94283.81;;;3.85;100.00
10466;BME280;5280;42.600;23.556;2022-12-29T01:59:02;94246.63;;;3.56;100.00
10466;BME280;5280;42.600;23.556;2022-12-29T02:01:32;94271.22;;;3.73;100.00
10466;BME280;5280;42.600;23.556;2022-12-29T02:03:59;94262.19;;;3.59;100.00
10466;BME280;5280;42.600;23.556;2022-12-29T02:06:29;94261.97;;;3.65;100.00
10466;BME280;5280;42.600;23.556;2022-12-29T02:08:57;94275.59;;;3.73;100.00
10466;BME280;5280;42.600;23.556;2022-12-29T02:11:26;94274.75;;;3.72;100.00
10466;BME280;5280;42.600;23.556;2022-12-29T02:13:57;94267.09;;;3.68;100.00
10466;BME280;5280;42.600;23.556;2022-12-29T02:16:36;94275.84;;;3.67;100.00
10466;BME280;5280;42.600;23.556;2022-12-29T02:19:29;94282.78;;;3.68;100.00
10466;BME280;5280;42.600;23.556;2022-12-29T02:22:08;94281.28;;;3.61;100.00
10466;BME280;5280;42.600;23.556;2022-12-29T02:25:17;94283.91;;;3.61;100.00
10466;BME280;5280;42.600;23.556;2022-12-29T02:27:53;94279.84;;;3.54;100.00
10466;BME280;5280;42.600;23.556;2022-12-29T02:30:47;94275.50;;;3.53;100.00
10466;BME280;5280;42.600;23.556;2022-12-29T02:33:33;94276.41;;;3.52;100.00
10466;BME280;5280;42.600;23.556;2022-12-29T02:36:08;94273.84;;;3.50;100.00
10466;BME280;5280;42.600;23.556;2022-12-29T02:38:48;94270.50;;;3.46;100.00
10466;BME280;5280;42.600;23.556;2022-12-29T02:41:19;94255.19;;;3.37;100.00
10466;BME280;5280;42.600;23.556;2022-12-29T02:43:52;94268.13;;;3.40;100.00
10466;BME280;5280;42.600;23.556;2022-12-29T02:46:28;94275.78;;;3.45;100.00
10466;BME280;5280;42.600;23.556;2022-12-29T02:49:05;94248.66;;;3.26;100.00
10466;BME280;5280;42.600;23.556;2022-12-29T02:51:35;94282.94;;;3.40;100.00
10466;BME280;5280;42.600;23.556;2022-12-29T02:54:04;94279.06;;;3.28;100.00
10466;BME280;5280;42.600;23.556;2022-12-29T02:56:48;94271.91;;;3.33;100.00
10466;BME280;5280;42.600;23.556;2022-12-29T02:59:15;94271.91;;;3.33;100.00
10466;BME280;5280;42.600;23.556;2022-12-29T03:02:03;94270.19;;;3.32;100.00
10466;BME280;5280;42.600;23.556;2022-12-29T03:04:55;94265.91;;;3.30;100.00
10466;BME280;5280;42.600;23.556;2022-12-29T03:07:34;94261.53;;;3.30;100.00
10466;BME280;5280;42.600;23.556;2022-12-29T03:10:10;94264.16;;;3.30;100.00
10466;BME280;5280;42.600;23.556;2022-12-29T03:12:48;94243.56;;;3.23;100.00
10466;BME280;5280;42.600;23.556;2022-12-29T03:15:42;94265.88;;;3.31;100.00
10466;BME280;5280;42.600;23.556;2022-12-29T03:18:37;94262.34;;;3.32;100.00
10466;BME280;5280;42.600;23.556;2022-12-29T03:21:12;94263.06;;;3.36;100.00
10466;BME280;5280;42.600;23.556;2022-12-29T03:23:44;94274.38;;;3.36;100.00
10466;BME280;5280;42.600;23.556;2022-12-29T03:26:16;94242.94;;;3.16;100.00
10466;BME280;5280;42.600;23.556;2022-12-29T03:28:47;94267.50;;;3.34;100.00
10466;BME280;5280;42.600;23.556;2022-12-29T03:31:16;94257.91;;;3.34;100.00
10466;BME280;5280;42.600;23.556;2022-12-29T03:33:46;94268.03;;;3.43;100.00
10466;BME280;5280;42.600;23.556;2022-12-29T03:36:19;94246.50;;;3.37;100.00
10466;BME280;5280;42.600;23.556;2022-12-29T03:38:51;94252.09;;;3.50;100.00
10466;BME280;5280;42.600;23.556;2022-12-29T03:41:26;94211.91;;;3.30;100.00
10466;BME280;5280;42.600;23.556;2022-12-29T03:43:55;94243.13;;;3.57;100.00
10466;BME280;5280;42.600;23.556;2022-12-29T03:46:21;94248.97;;;3.63;100.00
10466;BME280;5280;42.600;23.556;2022-12-29T03:48:49;94251.41;;;3.68;100.00
10466;BME280;5280;42.600;23.556;2022-12-29T03:51:16;94251.41;;;3.68;100.00
10466;BME280;5280;42.600;23.556;2022-12-29T03:53:43;94230.97;;;3.56;100.00
10466;BME280;5280;42.600;23.556;2022-12-29T03:56:10;94265.25;;;3.70;100.00
10466;BME280;5280;42.600;23.556;2022-12-29T03:58:36;94272.31;;;3.68;100.00
10466;BME280;5280;42.600;23.556;2022-12-29T04:01:04;94258.50;;;3.64;100.00
10466;BME280;5280;42.600;23.556;2022-12-29T04:03:31;94256.69;;;3.66;100.00
10466;BME280;5280;42.600;23.556;2022-12-29T04:05:59;94258.44;;;3.66;100.00
10466;BME280;5280;42.600;23.556;2022-12-29T04:08:26;94257.72;;;3.62;100.00
10466;BME280;5280;42.600;23.556;2022-12-29T04:10:53;94238.25;;;3.47;100.00
10466;BME280;5280;42.600;23.556;2022-12-29T04:13:20;94237.59;;;3.42;100.00
10466;BME280;5280;42.600;23.556;2022-12-29T04:15:46;94246.00;;;3.49;100.00
10466;BME280;5280;42.600;23.556;2022-12-29T04:18:13;94208.84;;;3.19;100.00
10466;BME280;5280;42.600;23.556;2022-12-29T04:20:41;94260.00;;;3.48;100.00
10466;BME280;5280;42.600;23.556;2022-12-29T04:23:31;94257.69;;;3.40;100.00
10466;BME280;5280;42.600;23.556;2022-12-29T04:25:58;94250.69;;;3.41;100.00
10466;BME280;5280;42.600;23.556;2022-12-29T04:28:25;94259.34;;;3.43;100.00
10466;BME280;5280;42.600;23.556;2022-12-29T04:30:51;94245.88;;;3.30;100.00
10466;BME280;5280;42.600;23.556;2022-12-29T04:33:18;94263.88;;;3.38;100.00
10466;BME280;5280;42.600;23.556;2022-12-29T04:35:45;94251.22;;;3.27;100.00
10466;BME280;5280;42.600;23.556;2022-12-29T04:38:13;94268.34;;;3.34;100.00
10466;BME280;5280;42.600;23.556;2022-12-29T04:40:42;94280.63;;;3.32;100.00
10466;BME280;5280;42.600;23.556;2022-12-29T04:43:09;94272.22;;;3.24;100.00
10466;BME280;5280;42.600;23.556;2022-12-29T04:45:36;94272.47;;;3.18;100.00
10466;BME280;5280;42.600;23.556;2022-12-29T04:48:04;94269.72;;;2.98;100.00
10466;BME280;5280;42.600;23.556;2022-12-29T04:50:31;94267.88;;;3.00;100.00
10466;BME280;5280;42.600;23.556;2022-12-29T04:52:57;94286.84;;;3.05;100.00
10466;BME280;5280;42.600;23.556;2022-12-29T04:55:24;94292.03;;;3.07;100.00
10466;BME280;5280;42.600;23.556;2022-12-29T04:57:52;94249.81;;;2.71;100.00
10466;BME280;5280;42.600;23.556;2022-12-29T05:00:19;94295.91;;;2.95;100.00
10466;BME280;5280;42.600;23.556;2022-12-29T05:02:46;94306.09;;;3.02;100.00
10466;BME280;5280;42.600;23.556;2022-12-29T05:05:13;94298.31;;;3.01;100.00
10466;BME280;5280;42.600;23.556;2022-12-29T05:07:40;94296.72;;;2.97;100.00
10466;BME280;5280;42.600;23.556;2022-12-29T05:10:07;94299.44;;;2.94;100.00
10466;BME280;5280;42.600;23.556;2022-12-29T05:12:36;94297.00;;;2.89;100.00
10466;BME280;5280;42.600;23.556;2022-12-29T05:15:06;94300.63;;;2.85;100.00
10466;BME280;5280;42.600;23.556;2022-12-29T05:17:33;94288.53;;;2.83;100.00
10466;BME280;5280;42.600;23.556;2022-12-29T05:20:00;94299.06;;;2.80;100.00
10466;BME280;5280;42.600;23.556;2022-12-29T05:22:27;94275.94;;;2.69;100.00
10466;BME280;5280;42.600;23.556;2022-12-29T05:24:54;94308.44;;;2.85;100.00
10466;BME280;5280;42.600;23.556;2022-12-29T05:27:20;94300.75;;;2.82;100.00
10466;BME280;5280;42.600;23.556;2022-12-29T05:29:47;94294.19;;;2.71;100.00
10466;BME280;5280;42.600;23.556;2022-12-29T05:32:15;94282.84;;;2.72;100.00
10466;BME280;5280;42.600;23.556;2022-12-29T05:34:42;94300.75;;;2.82;100.00
10466;BME280;5280;42.600;23.556;2022-12-29T05:37:09;94298.16;;;2.81;100.00
10466;BME280;5280;42.600;23.556;2022-12-29T05:39:35;94297.38;;;2.79;100.00
10466;BME280;5280;42.600;23.556;2022-12-29T05:42:02;94305.97;;;2.82;100.00
10466;BME280;5280;42.600;23.556;2022-12-29T05:44:29;94288.88;;;2.74;100.00
10466;BME280;5280;42.600;23.556;2022-12-29T05:46:56;94276.03;;;2.68;100.00
10466;BME280;5280;42.600;23.556;2022-12-29T05:49:24;94303.31;;;2.84;100.00
10466;BME280;5280;42.600;23.556;2022-12-29T05:51:51;94284.56;;;2.73;100.00
10466;BME280;5280;42.600;23.556;2022-12-29T05:54:18;94322.94;;;2.94;100.00
10466;BME280;5280;42.600;23.556;2022-12-29T05:56:44;94308.19;;;2.93;100.00
10466;BME280;5280;42.600;23.556;2022-12-29T05:59:14;94311.50;;;2.98;100.00
10466;BME280;5280;42.600;23.556;2022-12-29T06:01:43;94325.44;;;2.97;100.00
10466;BME280;5280;42.600;23.556;2022-12-29T06:04:10;94310.97;;;2.88;100.00
10466;BME280;5280;42.600;23.556;2022-12-29T06:06:38;94312.28;;;3.00;100.00
10466;BME280;5280;42.600;23.556;2022-12-29T06:09:05;94299.22;;;3.00;100.00
10466;BME280;5280;42.600;23.556;2022-12-29T06:11:32;94313.66;;;3.10;100.00
10466;BME280;5280;42.600;23.556;2022-12-29T06:13:59;94321.28;;;3.16;100.00
10466;BME280;5280;42.600;23.556;2022-12-29T06:16:26;94321.09;;;3.21;100.00
10466;BME280;5280;42.600;23.556;2022-12-29T06:18:52;94314.13;;;3.21;100.00
10466;BME280;5280;42.600;23.556;2022-12-29T06:21:19;94313.09;;;3.25;100.00
10466;BME280;5280;42.600;23.556;2022-12-29T06:23:47;94320.69;;;3.33;100.00
10466;BME280;5280;42.600;23.556;2022-12-29T06:26:14;94319.69;;;3.35;100.00
10466;BME280;5280;42.600;23.556;2022-12-29T06:28:40;94307.66;;;3.31;100.00
10466;BME280;5280;42.600;23.556;2022-12-29T06:31:08;94321.97;;;3.44;100.00
10466;BME280;5280;42.600;23.556;2022-12-29T06:33:35;94329.59;;;3.51;100.00
10466;BME280;5280;42.600;23.556;2022-12-29T06:36:02;94328.56;;;3.55;100.00
10466;BME280;5280;42.600;23.556;2022-12-29T06:38:29;94293.47;;;3.38;100.00
10466;BME280;5280;42.600;23.556;2022-12-29T06:40:57;94327.19;;;3.68;100.00
10466;BME280;5280;42.600;23.556;2022-12-29T06:43:24;94235.78;;;3.21;100.00
10466;BME280;5280;42.600;23.556;2022-12-29T06:45:51;94329.47;;;3.77;100.00
10466;BME280;5280;42.600;23.556;2022-12-29T06:48:17;94332.72;;;3.83;100.00
10466;BME280;5280;42.600;23.556;2022-12-29T06:50:44;94335.19;;;3.86;100.00
10466;BME280;5280;42.600;23.556;2022-12-29T06:53:11;94336.00;;;3.88;100.00
10466;BME280;5280;42.600;23.556;2022-12-29T06:55:41;94312.13;;;3.74;100.00
10466;BME280;5280;42.600;23.556;2022-12-29T06:58:09;94347.97;;;3.94;100.00
10466;BME280;5280;42.600;23.556;2022-12-29T07:00:36;94347.84;;;3.97;100.00
10466;BME280;5280;42.600;23.556;2022-12-29T07:03:03;94331.66;;;3.87;100.00
10466;BME280;5280;42.600;23.556;2022-12-29T07:05:29;94336.63;;;3.94;100.00
10466;BME280;5280;42.600;23.556;2022-12-29T07:07:58;94346.31;;;3.92;100.00
10466;BME280;5280;42.600;23.556;2022-12-29T07:10:25;94349.66;;;3.95;100.00
10466;BME280;5280;42.600;23.556;2022-12-29T07:12:52;94337.25;;;3.78;100.00
10466;BME280;5280;42.600;23.556;2022-12-29T07:15:20;94343.84;;;3.88;100.00
10466;BME280;5280;42.600;23.556;2022-12-29T07:17:47;94336.03;;;3.87;100.00
10466;BME280;5280;42.600;23.556;2022-12-29T07:20:15;94337.50;;;3.94;100.00
10466;BME280;5280;42.600;23.556;2022-12-29T07:22:42;94341.78;;;3.97;100.00
10466;BME280;5280;42.600;23.556;2022-12-29T07:25:08;94336.63;;;3.94;100.00
10466;BME280;5280;42.600;23.556;2022-12-29T07:27:35;94335.81;;;3.93;100.00
10466;BME280;5280;42.600;23.556;2022-12-29T07:30:02;94359.91;;;4.01;100.00
10466;BME280;5280;42.600;23.556;2022-12-29T07:32:33;94352.09;;;4.00;100.00
10466;BME280;5280;42.600;23.556;2022-12-29T07:35:00;94365.06;;;4.03;100.00
10466;BME280;5280;42.600;23.556;2022-12-29T07:37:29;94355.47;;;4.03;100.00
10466;BME280;5280;42.600;23.556;2022-12-29T07:39:56;94351.06;;;4.04;100.00
10466;BME280;5280;42.600;23.556;2022-12-29T07:42:23;94330.81;;;3.87;100.00
10466;BME280;5280;42.600;23.556;2022-12-29T07:44:49;94345.78;;;4.05;100.00
10466;BME280;5280;42.600;23.556;2022-12-29T07:47:16;94342.50;;;4.00;100.00
10466;BME280;5280;42.600;23.556;2022-12-29T07:49:44;94345.00;;;4.03;100.00
10466;BME280;5280;42.600;23.556;2022-12-29T07:52:11;94342.13;;;4.09;100.00
10466;BME280;5280;42.600;23.556;2022-12-29T07:54:38;94337.84;;;4.08;100.00
10466;BME280;5280;42.600;23.556;2022-12-29T07:57:05;94341.28;;;4.09;100.00
10466;BME280;5280;42.600;23.556;2022-12-29T07:59:32;94350.97;;;4.07;100.00
10466;BME280;5280;42.600;23.556;2022-12-29T08:01:58;94344.06;;;4.04;100.00
10466;BME280;5280;42.600;23.556;2022-12-29T08:04:25;94345.78;;;4.05;100.00
10466;BME280;5280;42.600;23.556;2022-12-29T08:06:53;94348.34;;;4.07;100.00
10466;BME280;5280;42.600;23.556;2022-12-29T08:09:20;94345.69;;;4.08;100.00
10466;BME280;5280;42.600;23.556;2022-12-29T08:11:47;94356.00;;;4.11;100.00
10466;BME280;5280;42.600;23.556;2022-12-29T08:14:13;94365.44;;;4.15;100.00
10466;BME280;5280;42.600;23.556;2022-12-29T08:16:40;94362.97;;;4.12;100.00
10466;BME280;5280;42.600;23.556;2022-12-29T08:19:07;94352.25;;;4.18;100.00
10466;BME280;5280;42.600;23.556;2022-12-29T08:21:33;94352.00;;;4.24;100.00
10466;BME280;5280;42.600;23.556;2022-12-29T08:24:02;94352.63;;;4.31;100.00
10466;BME280;5280;42.600;23.556;2022-12-29T08:26:28;94356.84;;;4.33;100.00
10466;BME280;5280;42.600;23.556;2022-12-29T08:28:55;94336.44;;;4.21;100.00
10466;BME280;5280;42.600;23.556;2022-12-29T08:31:22;94346.91;;;4.21;100.00
10466;BME280;5280;42.600;23.556;2022-12-29T08:33:50;94350.03;;;4.29;100.00
10466;BME280;5280;42.600;23.556;2022-12-29T08:36:16;94352.56;;;4.32;100.00
10466;BME280;5280;42.600;23.556;2022-12-29T08:38:43;94322.16;;;4.28;100.00
10466;BME280;5280;42.600;23.556;2022-12-29T08:41:11;94341.59;;;4.45;100.00
10466;BME280;5280;42.600;23.556;2022-12-29T08:43:38;94345.84;;;4.47;100.00
10466;BME280;5280;42.600;23.556;2022-12-29T08:46:05;94335.50;;;4.44;100.00
10466;BME280;5280;42.600;23.556;2022-12-29T08:48:31;94343.97;;;4.51;100.00
10466;BME280;5280;42.600;23.556;2022-12-29T08:50:58;94338.88;;;4.48;100.00
10466;BME280;5280;42.600;23.556;2022-12-29T08:53:25;94338.88;;;4.48;100.00
10466;BME280;5280;42.600;23.556;2022-12-29T08:55:55;94336.09;;;4.51;100.00
10466;BME280;5280;42.600;23.556;2022-12-29T08:58:24;94325.44;;;4.55;100.00
10466;BME280;5280;42.600;23.556;2022-12-29T09:00:52;94302.00;;;4.32;100.00
10466;BME280;5280;42.600;23.556;2022-12-29T09:03:19;94328.88;;;4.57;100.00
10466;BME280;5280;42.600;23.556;2022-12-29T09:05:47;94330.09;;;4.69;100.00
10466;BME280;5280;42.600;23.556;2022-12-29T09:08:14;94318.00;;;4.66;100.00
10466;BME280;5280;42.600;23.556;2022-12-29T09:10:41;94332.22;;;4.81;100.00
10466;BME280;5280;42.600;23.556;2022-12-29T09:13:08;94338.44;;;4.78;100.00
10466;BME280;5280;42.600;23.556;2022-12-29T09:15:36;94311.66;;;4.72;100.00
10466;BME280;5280;42.600;23.556;2022-12-29T09:18:03;94322.47;;;4.85;100.00
10466;BME280;5280;42.600;23.556;2022-12-29T09:20:30;94319.44;;;4.94;100.00
10466;BME280;5280;42.600;23.556;2022-12-29T09:22:57;94312.34;;;4.97;100.00
10466;BME280;5280;42.600;23.556;2022-12-29T09:25:24;94306.34;;;4.94;100.00
10466;BME280;5280;42.600;23.556;2022-12-29T09:27:50;94320.56;;;5.08;100.00
10466;BME280;5280;42.600;23.556;2022-12-29T09:30:19;94292.16;;;4.99;100.00
10466;BME280;5280;42.600;23.556;2022-12-29T09:32:48;94315.97;;;5.13;100.00
10466;BME280;5280;42.600;23.556;2022-12-29T09:35:15;94314.16;;;5.15;100.00
10466;BME280;5280;42.600;23.556;2022-12-29T09:37:43;94313.09;;;5.19;100.00
10466;BME280;5280;42.600;23.556;2022-12-29T09:40:24;94312.88;;;5.24;100.00
10466;BME280;5280;42.600;23.556;2022-12-29T09:43:05;94312.69;;;5.29;100.00
10466;BME280;5280;42.600;23.556;2022-12-29T09:45:39;94271.56;;;5.10;100.00
10466;BME280;5280;42.600;23.556;2022-12-29T09:48:13;94301.63;;;5.22;100.00
10466;BME280;5280;42.600;23.556;2022-12-29T09:50:44;94306.31;;;5.34;100.00
10466;BME280;5280;42.600;23.556;2022-12-29T09:53:17;94208.69;;;4.92;100.00
10466;BME280;5280;42.600;23.556;2022-12-29T09:55:49;94302.25;;;5.47;100.00
10466;BME280;5280;42.600;23.556;2022-12-29T09:58:21;94302.94;;;5.51;100.00
10466;BME280;5280;42.600;23.556;2022-12-29T10:00:53;94278.72;;;5.46;100.00
10466;BME280;5280;42.600;23.556;2022-12-29T10:03:24;94297.06;;;5.64;100.00
10466;BME280;5280;42.600;23.556;2022-12-29T10:05:58;94282.63;;;5.56;100.00
10466;BME280;5280;42.600;23.556;2022-12-29T10:08:37;94291.63;;;5.69;100.00
10466;BME280;5280;42.600;23.556;2022-12-29T10:11:15;94286.38;;;5.69;100.00
10466;BME280;5280;42.600;23.556;2022-12-29T10:13:56;94284.97;;;5.81;100.00
10466;BME280;5280;42.600;23.556;2022-12-29T10:16:32;94275.38;;;5.80;100.00
10466;BME280;5280;42.600;23.556;2022-12-29T10:19:19;94276.88;;;5.85;100.00
10466;BME280;5280;42.600;23.556;2022-12-29T10:22:03;94282.72;;;5.92;100.00
10466;BME280;5280;42.600;23.556;2022-12-29T10:24:34;94265.97;;;5.94;100.00
10466;BME280;5280;42.600;23.556;2022-12-29T10:27:05;94269.00;;;6.04;100.00
10466;BME280;5280;42.600;23.556;2022-12-29T10:29:39;94261.09;;;6.05;100.00
10466;BME280;5280;42.600;23.556;2022-12-29T10:32:16;94258.94;;;6.14;100.00
10466;BME280;5280;42.600;23.556;2022-12-29T10:34:48;94253.56;;;6.17;100.00
10466;BME280;5280;42.600;23.556;2022-12-29T10:37:24;94260.81;;;6.29;100.00
10466;BME280;5280;42.600;23.556;2022-12-29T10:39:55;94243.28;;;6.29;100.00
10466;BME280;5280;42.600;23.556;2022-12-29T10:42:26;94260.22;;;6.41;100.00
10466;BME280;5280;42.600;23.556;2022-12-29T10:44:53;94243.38;;;6.45;100.00
10466;BME280;5280;42.600;23.556;2022-12-29T10:47:23;94245.72;;;6.51;100.00
10466;BME280;5280;42.600;23.556;2022-12-29T10:49:53;94156.19;;;6.04;100.00
10466;BME280;5280;42.600;23.556;2022-12-29T10:52:21;94244.41;;;6.60;100.00
10466;BME280;5280;42.600;23.556;2022-12-29T10:54:51;94243.53;;;6.59;100.00
10466;BME280;5280;42.600;23.556;2022-12-29T10:57:25;94243.94;;;6.69;100.00
10466;BME280;5280;42.600;23.556;2022-12-29T10:59:53;94237.81;;;6.68;100.00
10466;BME280;5280;42.600;23.556;2022-12-29T11:02:34;94207.88;;;6.55;100.00
10466;BME280;5280;42.600;23.556;2022-12-29T11:05:10;94234.59;;;6.80;100.00
10466;BME280;5280;42.600;23.556;2022-12-29T11:07:42;94231.78;;;6.83;100.00
10466;BME280;5280;42.600;23.556;2022-12-29T11:10:21;94224.69;;;6.85;100.00
10466;BME280;5280;42.600;23.556;2022-12-29T11:12:57;94221.75;;;6.91;100.00
10466;BME280;5280;42.600;23.556;2022-12-29T11:15:24;94218.94;;;6.95;100.00
10466;BME280;5280;42.600;23.556;2022-12-29T11:17:53;94205.69;;;6.80;100.00
10466;BME280;5280;42.600;23.556;2022-12-29T11:20:35;94216.09;;;6.99;100.00
10466;BME280;5280;42.600;23.556;2022-12-29T11:23:04;94218.94;;;7.12;100.00
10466;BME280;5280;42.600;23.556;2022-12-29T11:25:31;94216.22;;;7.13;100.00
10466;BME280;5280;42.600;23.556;2022-12-29T11:28:00;94210.69;;;7.02;100.00
10466;BME280;5280;42.600;23.556;2022-12-29T11:30:29;94193.56;;;7.11;100.00
10466;BME280;5280;42.600;23.556;2022-12-29T11:32:57;94203.53;;;7.21;99.71
10466;BME280;5280;42.600;23.556;2022-12-29T11:35:34;94205.13;;;7.24;99.70
10466;BME280;5280;42.600;23.556;2022-12-29T11:38:02;94194.69;;;7.22;99.38
10466;BME280;5280;42.600;23.556;2022-12-29T11:40:30;94200.94;;;7.37;99.28
10466;BME280;5280;42.600;23.556;2022-12-29T11:43:01;94199.81;;;7.41;99.65
10466;BME280;5280;42.600;23.556;2022-12-29T11:45:30;94195.41;;;7.26;99.93
10466;BME280;5280;42.600;23.556;2022-12-29T11:48:01;94195.66;;;7.37;98.90
10466;BME280;5280;42.600;23.556;2022-12-29T11:50:29;94193.28;;;7.48;98.76
10466;BME280;5280;42.600;23.556;2022-12-29T11:53:01;94200.56;;;7.43;99.07
10466;BME280;5280;42.600;23.556;2022-12-29T11:55:30;94189.91;;;7.46;98.24
10466;BME280;5280;42.600;23.556;2022-12-29T11:58:00;94198.81;;;7.44;98.96
10466;BME280;5280;42.600;23.556;2022-12-29T12:00:31;94200.44;;;7.62;97.71
10466;BME280;5280;42.600;23.556;2022-12-29T12:03:02;94196.78;;;7.64;97.86
10466;BME280;5280;42.600;23.556;2022-12-29T12:05:36;94189.16;;;7.60;97.67
10466;BME280;5280;42.600;23.556;2022-12-29T12:08:11;94186.78;;;7.71;97.05
10466;BME280;5280;42.600;23.556;2022-12-29T12:10:43;94183.81;;;7.77;97.03
10466;BME280;5280;42.600;23.556;2022-12-29T12:13:23;94172.25;;;7.64;96.73
10466;BME280;5280;42.600;23.556;2022-12-29T12:15:57;94183.03;;;7.75;96.94
10466;BME280;5280;42.600;23.556;2022-12-29T12:18:34;94187.72;;;7.70;97.25
10466;BME280;5280;42.600;23.556;2022-12-29T12:21:09;94174.63;;;7.68;97.44
10466;BME280;5280;42.600;23.556;2022-12-29T12:23:44;94180.66;;;7.70;97.13
10466;BME280;5280;42.600;23.556;2022-12-29T12:26:16;94176.00;;;7.75;97.07
10466;BME280;5280;42.600;23.556;2022-12-29T12:28:50;94175.06;;;7.76;96.80
10466;BME280;5280;42.600;23.556;2022-12-29T12:31:26;94168.84;;;7.77;98.17
10466;BME280;5280;42.600;23.556;2022-12-29T12:34:00;94172.44;;;7.76;97.95
10466;BME280;5280;42.600;23.556;2022-12-29T12:36:47;94169.63;;;7.79;99.21
10466;BME280;5280;42.600;23.556;2022-12-29T12:39:26;94177.69;;;7.76;97.88
10466;BME280;5280;42.600;23.556;2022-12-29T12:42:02;94136.28;;;7.33;98.81
10466;BME280;5280;42.600;23.556;2022-12-29T12:44:40;94158.50;;;7.59;99.66
10466;BME280;5280;42.600;23.556;2022-12-29T12:47:36;94176.66;;;7.63;99.87
10466;BME280;5280;42.600;23.556;2022-12-29T12:50:19;94174.03;;;7.63;100.00
10466;BME280;5280;42.600;23.556;2022-12-29T12:53:08;94181.25;;;7.60;100.00
10466;BME280;5280;42.600;23.556;2022-12-29T12:55:50;94167.09;;;7.47;100.00
10466;BME280;5280;42.600;23.556;2022-12-29T12:58:30;94168.34;;;7.40;100.00
10466;BME280;5280;42.600;23.556;2022-12-29T13:01:11;94156.81;;;7.26;100.00
10466;BME280;5280;42.600;23.556;2022-12-29T13:03:54;94188.38;;;7.42;100.00
10466;BME280;5280;42.600;23.556;2022-12-29T13:06:33;94186.94;;;7.37;100.00
10466;BME280;5280;42.600;23.556;2022-12-29T13:09:32;94188.09;;;7.31;100.00
10466;BME280;5280;42.600;23.556;2022-12-29T13:12:15;94192.75;;;7.26;100.00
10466;BME280;5280;42.600;23.556;2022-12-29T13:14:53;94193.75;;;7.23;100.00
10466;BME280;5280;42.600;23.556;2022-12-29T13:17:29;94182.50;;;7.21;100.00
10466;BME280;5280;42.600;23.556;2022-12-29T13:20:02;94179.09;;;7.19;100.00